Bookmark and Share
Track history (hours):
 

Kvitbjoern

Last reported at 2014-Apr-23 14:23 UTC. Time now 2014-Apr-23 15:06 UTC.
Position N 66°22' E 012°21'.

Length 10 m.

Type: Fishing. MMSI: 257454420.

NotesDate/timePositionNaut miles runAvg speedWind from/ knotsBaromVisibWave heightAir tempDewpointWater temp
2014-Apr-23 14:23N 66°22' E 012°21'0 0.0
2014-Apr-23 13:29N 66°22' E 012°21'0 0.0
2014-Apr-23 12:29N 66°22' E 012°21'0 0.1
2014-Apr-23 11:33N 66°22' E 012°22'1 1.3
2014-Apr-23 10:31N 66°24' E 012°22'0 0.1
2014-Apr-23 09:24N 66°24' E 012°22'0 0.0
2014-Apr-23 08:29N 66°24' E 012°22'1 1.0
2014-Apr-23 07:33N 66°23' E 012°23'1 1.1
2014-Apr-23 06:33N 66°22' E 012°24'0 0.1
2014-Apr-23 05:27N 66°22' E 012°24'1 0.1
2014-Apr-22 13:29N 66°22' E 012°21'0 0.0
2014-Apr-22 12:29N 66°22' E 012°21'2 1.8
2014-Apr-22 11:33N 66°24' E 012°24'1 0.7
2014-Apr-22 10:33N 66°24' E 012°25'2 1.5
2014-Apr-22 09:30N 66°22' E 012°27'1 0.5
2014-Apr-22 08:31N 66°22' E 012°27'1 1.1
2014-Apr-22 07:29N 66°22' E 012°24'0 0.2
2014-Apr-22 06:28N 66°22' E 012°24'1 1.1
2014-Apr-22 05:28N 66°22' E 012°21'0 0.0
2014-Apr-21 19:15N 66°22' E 012°21'1 2.1
2014-Apr-21 18:33N 66°22' E 012°25'1 0.8
2014-Apr-21 17:31N 66°22' E 012°27'2 2.1
2014-Apr-21 16:33N 66°20' E 012°28'3 3.2
2014-Apr-21 15:33N 66°22' E 012°22'  

Dump ship's entire track history

sailing weather and tide predictions

Kvitbjoern — LM9158 — position and weather